createdAt,value
2018-01-21T04:32:35.103Z,96.10
2018-01-21T04:35:08.923Z,96.20
2018-01-21T04:37:44.248Z,95.80
2018-01-21T04:40:18.065Z,95.70
2018-01-21T04:42:52.010Z,95.60
2018-01-21T04:45:25.737Z,95.20
2018-01-21T04:48:00.303Z,95.50
2018-01-21T04:50:34.084Z,95.50
2018-01-21T04:53:09.938Z,95.10
2018-01-21T04:55:44.479Z,94.70
2018-01-21T04:58:35.185Z,94.70
2018-01-21T05:01:08.840Z,94.20
2018-01-21T05:03:42.603Z,94.70
2018-01-21T05:06:16.495Z,94.80
2018-01-21T05:08:50.267Z,94.50
2018-01-21T05:11:24.831Z,94.50
2018-01-21T05:13:59.344Z,94.40
2018-01-21T05:16:33.143Z,94.40
2018-01-21T05:19:06.988Z,94.20
2018-01-21T05:21:41.419Z,94.10
2018-01-21T05:24:15.342Z,94.10
2018-01-21T05:26:49.880Z,94.50
2018-01-21T05:29:23.759Z,94.50
2018-01-21T05:31:57.498Z,94.30
2018-01-21T05:34:31.404Z,94.30
2018-01-21T05:37:05.326Z,94.20
2018-01-21T05:39:39.019Z,93.90
2018-01-21T05:42:13.643Z,93.90
2018-01-21T05:44:47.494Z,93.80
2018-01-21T05:47:21.393Z,94.10
2018-01-21T05:49:55.263Z,94.10
2018-01-21T05:52:29.812Z,93.90
2018-01-21T05:55:03.535Z,93.90
2018-01-21T05:57:38.054Z,93.70
2018-01-21T06:00:12.507Z,93.60
2018-01-21T06:02:46.408Z,93.70
2018-01-21T06:05:20.996Z,93.90
2018-01-21T06:07:54.875Z,93.90
2018-01-21T06:10:28.610Z,93.70
2018-01-21T06:13:02.456Z,93.90
2018-01-21T06:15:36.275Z,93.70
2018-01-21T06:18:10.176Z,94.00
2018-01-21T06:20:43.787Z,93.90
2018-01-21T06:23:19.182Z,93.80
2018-01-21T06:25:52.865Z,93.80
2018-01-21T06:28:26.647Z,93.90
2018-01-21T06:31:01.194Z,94.10
2018-01-21T06:33:34.996Z,94.10
2018-01-21T06:36:08.839Z,93.50
2018-01-21T06:38:42.632Z,93.60
2018-01-21T06:41:17.263Z,93.60
2018-01-21T06:43:51.055Z,93.60
2018-01-21T06:46:24.890Z,93.50
2018-01-21T06:48:59.492Z,93.50
2018-01-21T06:51:34.071Z,93.80
2018-01-21T06:54:08.663Z,93.50
2018-01-21T06:56:42.439Z,93.50
2018-01-21T06:59:16.295Z,93.50
2018-01-21T07:01:50.064Z,93.50
2018-01-21T07:04:23.764Z,93.40
2018-01-21T07:06:57.387Z,93.50
2018-01-21T07:09:31.945Z,93.90
2018-01-21T07:12:05.636Z,93.60
2018-01-21T07:14:39.207Z,93.20
2018-01-21T07:17:13.027Z,93.30
2018-01-21T07:19:46.779Z,93.40
2018-01-21T07:22:20.583Z,93.20
2018-01-21T07:24:54.318Z,93.10
2018-01-21T07:27:28.165Z,93.50
2018-01-21T07:30:01.888Z,93.20
2018-01-21T07:32:35.724Z,93.50
2018-01-21T07:35:10.220Z,94.00
2018-01-21T07:37:44.773Z,94.10
2018-01-21T07:40:18.491Z,94.10
2018-01-21T07:42:52.260Z,94.10
2018-01-21T07:45:26.127Z,94.00
2018-01-21T07:47:59.843Z,93.50
2018-01-21T07:50:33.681Z,93.90
2018-01-21T07:53:08.194Z,93.00
2018-01-21T07:55:42.039Z,93.00
2018-01-21T07:58:15.801Z,93.40
2018-01-21T08:00:49.560Z,92.80
2018-01-21T08:03:24.140Z,92.80
2018-01-21T08:05:58.052Z,92.80
2018-01-21T08:08:31.835Z,92.90
2018-01-21T08:11:05.608Z,92.40
2018-01-21T08:13:39.431Z,92.50
2018-01-21T08:16:13.227Z,92.70
2018-01-21T08:18:46.991Z,92.90
2018-01-21T08:21:20.756Z,92.90
2018-01-21T08:23:55.299Z,93.20
2018-01-21T08:26:29.099Z,93.20
2018-01-21T08:29:02.699Z,93.10
2018-01-21T08:31:37.256Z,92.50
2018-01-21T08:34:18.872Z,92.50
2018-01-21T08:36:58.295Z,92.80
2018-01-21T08:39:37.719Z,92.70
2018-01-21T08:42:18.041Z,92.00
2018-01-21T08:44:51.940Z,92.00
2018-01-21T08:47:25.792Z,91.50
2018-01-21T08:49:59.608Z,91.30
2018-01-21T08:52:33.459Z,91.40
2018-01-21T08:55:07.293Z,91.20
2018-01-21T08:57:44.198Z,91.30
2018-01-21T09:00:18.085Z,91.30
2018-01-21T09:02:52.131Z,90.50
2018-01-21T09:05:25.890Z,90.20
2018-01-21T09:07:59.631Z,90.60
2018-01-21T09:10:33.481Z,90.50
2018-01-21T09:13:07.303Z,90.60
2018-01-21T09:15:41.040Z,89.80
2018-01-21T09:18:14.834Z,86.50
2018-01-21T09:20:48.599Z,86.80
2018-01-21T09:23:22.556Z,86.20
2018-01-21T09:25:56.305Z,84.50
2018-01-21T09:28:30.080Z,84.10
2018-01-21T09:31:03.811Z,85.20
2018-01-21T09:33:37.609Z,85.60
2018-01-21T09:36:12.229Z,84.80
2018-01-21T09:38:46.013Z,84.80
2018-01-21T09:41:19.760Z,84.60
2018-01-21T09:43:53.431Z,83.50
2018-01-21T09:46:27.239Z,82.80
2018-01-21T09:49:01.056Z,82.10
2018-01-21T09:51:34.895Z,83.80
2018-01-21T09:54:08.680Z,84.40
2018-01-21T09:56:43.276Z,86.00
2018-01-21T09:59:17.102Z,85.90
2018-01-21T10:01:50.908Z,86.10
2018-01-21T10:04:24.715Z,85.60
2018-01-21T10:06:58.555Z,86.00
2018-01-21T10:09:32.176Z,85.70
2018-01-21T10:12:06.831Z,86.50
2018-01-21T10:14:40.700Z,86.60
2018-01-21T10:17:15.416Z,84.20
2018-01-21T10:19:49.163Z,84.20
2018-01-21T10:22:22.864Z,84.40
2018-01-21T10:24:56.548Z,85.70
2018-01-21T10:27:30.428Z,83.80
2018-01-21T10:30:05.105Z,82.60
2018-01-21T10:32:39.657Z,80.40
2018-01-21T10:35:14.748Z,79.60
2018-01-21T10:37:48.607Z,79.60
2018-01-21T10:40:22.355Z,79.70
2018-01-21T10:42:57.015Z,81.20
2018-01-21T10:45:30.819Z,81.20
2018-01-21T10:48:04.663Z,83.50
2018-01-21T10:50:39.117Z,83.30
2018-01-21T10:53:12.895Z,83.30
2018-01-21T10:55:46.700Z,83.10
2018-01-21T10:58:20.495Z,82.00
2018-01-21T11:01:00.667Z,80.60
2018-01-21T11:03:34.583Z,80.60
2018-01-21T11:06:09.247Z,82.10
2018-01-21T11:08:43.761Z,81.70
2018-01-21T11:11:17.623Z,81.80
2018-01-21T11:13:51.681Z,81.80
2018-01-21T11:16:26.159Z,82.00
2018-01-21T11:18:59.972Z,82.00
2018-01-21T11:21:33.739Z,79.90
2018-01-21T11:24:07.575Z,81.20
2018-01-21T11:26:41.215Z,81.20
2018-01-21T11:29:14.984Z,80.70
2018-01-21T11:31:48.754Z,81.20
2018-01-21T11:34:22.595Z,81.50
2018-01-21T11:36:57.154Z,80.80
2018-01-21T11:39:30.912Z,80.80
2018-01-21T11:42:04.728Z,81.50
2018-01-21T11:44:38.515Z,81.30
2018-01-21T11:47:12.228Z,80.50
2018-01-21T11:49:46.784Z,80.10
2018-01-21T11:52:20.672Z,79.50
2018-01-21T11:54:55.227Z,78.70
2018-01-21T11:57:30.303Z,78.70
2018-01-21T12:00:04.899Z,78.30
2018-01-21T12:02:39.529Z,78.80
2018-01-21T12:05:14.769Z,79.80
2018-01-21T12:07:49.279Z,77.60
2018-01-21T12:10:23.033Z,77.50
2018-01-21T12:12:56.906Z,76.10
2018-01-21T12:15:30.766Z,75.50
2018-01-21T12:18:04.652Z,74.90
2018-01-21T12:20:38.437Z,76.20
2018-01-21T12:23:12.328Z,75.90
2018-01-21T12:25:46.192Z,75.00
2018-01-21T12:28:20.755Z,72.30
2018-01-21T12:30:55.305Z,72.90
2018-01-21T12:33:29.120Z,72.90
2018-01-21T12:36:03.627Z,72.40
2018-01-21T12:38:39.119Z,72.30
2018-01-21T12:41:12.840Z,72.30
2018-01-21T12:43:46.712Z,73.60
2018-01-21T12:46:21.270Z,73.10
2018-01-21T12:48:55.104Z,73.10
2018-01-21T12:51:29.700Z,73.90
2018-01-21T12:54:03.629Z,73.80
2018-01-21T12:56:37.584Z,72.90
2018-01-21T12:59:11.624Z,73.00
2018-01-21T13:01:45.492Z,72.70
2018-01-21T13:04:19.303Z,72.10
2018-01-21T13:06:53.108Z,70.90
2018-01-21T13:09:26.944Z,71.50
2018-01-21T13:12:00.751Z,71.60
2018-01-21T13:14:34.643Z,71.90
2018-01-21T13:17:08.386Z,72.70
2018-01-21T13:19:42.540Z,72.50
2018-01-21T13:22:16.368Z,72.10
2018-01-21T13:24:50.965Z,70.30
2018-01-21T13:27:24.684Z,70.30
2018-01-21T13:29:58.545Z,71.10
2018-01-21T13:32:32.300Z,71.20
2018-01-21T13:35:06.907Z,70.50
2018-01-21T13:37:41.730Z,71.50
2018-01-21T13:40:16.467Z,70.80
2018-01-21T13:42:50.151Z,70.70
2018-01-21T13:45:24.395Z,70.90
2018-01-21T13:47:58.250Z,71.10
2018-01-21T13:50:32.904Z,72.20
2018-01-21T13:53:06.638Z,72.10
2018-01-21T13:55:40.405Z,70.40
2018-01-21T13:58:14.027Z,71.40
2018-01-21T14:00:47.831Z,71.20
2018-01-21T14:03:22.455Z,72.50
2018-01-21T14:05:56.283Z,72.50
2018-01-21T14:08:30.204Z,73.10
2018-01-21T14:11:04.071Z,71.80
2018-01-21T14:13:37.973Z,72.10
2018-01-21T14:16:11.820Z,71.70
2018-01-21T14:18:45.612Z,71.60
2018-01-21T14:21:19.403Z,71.30
2018-01-21T14:23:54.032Z,70.50
2018-01-21T14:26:28.558Z,71.80
2018-01-21T14:29:02.359Z,71.70
2018-01-21T14:31:36.215Z,71.30
2018-01-21T14:34:10.153Z,70.40
2018-01-21T14:36:44.659Z,69.90
2018-01-21T14:39:19.592Z,71.10
2018-01-21T14:41:53.385Z,71.10
2018-01-21T14:44:27.965Z,70.70
2018-01-21T14:47:03.279Z,70.00
2018-01-21T14:49:37.157Z,70.00
2018-01-21T14:52:10.935Z,70.90
2018-01-21T14:54:45.544Z,68.40
2018-01-21T14:57:19.196Z,68.20
2018-01-21T14:59:53.090Z,67.90
2018-01-21T15:02:27.576Z,67.40
2018-01-21T15:05:02.205Z,67.90
2018-01-21T15:07:36.008Z,67.90
2018-01-21T15:10:10.640Z,67.90
2018-01-21T15:12:44.555Z,67.90
2018-01-21T15:15:19.066Z,69.30
2018-01-21T15:17:53.596Z,69.30
2018-01-21T15:20:27.517Z,68.90
2018-01-21T15:23:01.307Z,69.80
2018-01-21T15:25:36.235Z,69.40
2018-01-21T15:28:10.864Z,70.40
2018-01-21T15:30:45.538Z,70.30
2018-01-21T15:33:19.248Z,70.30
2018-01-21T15:35:53.131Z,70.40
2018-01-21T15:38:26.853Z,70.00
2018-01-21T15:41:00.633Z,71.30
2018-01-21T15:43:34.494Z,71.20
2018-01-21T15:46:09.050Z,71.50
2018-01-21T15:48:42.835Z,71.40
2018-01-21T15:51:16.504Z,72.80
2018-01-21T15:53:50.423Z,73.40
2018-01-21T15:56:24.187Z,73.80
2018-01-21T15:58:58.738Z,73.20
2018-01-21T16:01:32.776Z,73.20
2018-01-21T16:04:07.201Z,72.80
2018-01-21T16:06:40.957Z,72.80
2018-01-21T16:09:15.532Z,73.50
2018-01-21T16:11:49.307Z,73.40
2018-01-21T16:14:22.960Z,71.60
2018-01-21T16:16:56.803Z,72.50
2018-01-21T16:19:31.260Z,71.70
2018-01-21T16:22:05.813Z,72.30
2018-01-21T16:24:39.411Z,72.20
2018-01-21T16:27:13.397Z,72.30
2018-01-21T16:29:47.191Z,73.00
2018-01-21T16:32:21.014Z,72.50
2018-01-21T16:34:55.517Z,72.70
2018-01-21T16:37:41.264Z,72.00
2018-01-21T16:40:15.885Z,72.50
2018-01-21T16:42:49.644Z,72.20
2018-01-21T16:45:23.416Z,72.10
2018-01-21T16:47:58.054Z,72.60
2018-01-21T16:50:32.591Z,73.60
2018-01-21T16:53:07.278Z,74.00
2018-01-21T16:55:41.115Z,74.00
2018-01-21T16:58:14.958Z,74.70
2018-01-21T17:00:48.781Z,74.40
2018-01-21T17:03:22.619Z,74.60
2018-01-21T17:05:56.547Z,75.20
2018-01-21T17:08:30.300Z,76.00
2018-01-21T17:11:04.163Z,76.50
2018-01-21T17:13:37.967Z,76.10
2018-01-21T17:16:11.844Z,77.00
2018-01-21T17:18:45.588Z,77.20
2018-01-21T17:21:20.199Z,78.60
2018-01-21T17:23:54.812Z,78.40
2018-01-21T17:26:28.462Z,78.90
2018-01-21T17:29:02.355Z,79.80
2018-01-21T17:31:36.399Z,79.80
2018-01-21T17:34:10.243Z,79.60
2018-01-21T17:36:43.995Z,79.20
2018-01-21T17:39:17.786Z,79.20
2018-01-21T17:41:51.670Z,79.20
2018-01-21T17:44:25.485Z,79.20
2018-01-21T17:47:00.130Z,79.40
2018-01-21T17:49:33.943Z,79.30
2018-01-21T17:52:07.861Z,79.70
2018-01-21T17:54:42.426Z,79.20
2018-01-21T17:57:16.891Z,79.30
2018-01-21T17:59:51.571Z,79.00
2018-01-21T18:02:25.337Z,79.00
2018-01-21T18:04:59.240Z,79.20
2018-01-21T18:07:33.743Z,79.10
2018-01-21T18:10:07.505Z,79.10
2018-01-21T18:12:41.342Z,79.60
2018-01-21T18:15:16.212Z,79.00
2018-01-21T18:17:49.964Z,79.00
2018-01-21T18:20:23.790Z,79.60
2018-01-21T18:22:57.564Z,79.90
2018-01-21T18:25:31.426Z,80.40
2018-01-21T18:28:05.963Z,80.60
2018-01-21T18:30:40.452Z,80.70
2018-01-21T18:33:14.235Z,80.60
2018-01-21T18:35:48.042Z,80.80
2018-01-21T18:38:23.629Z,81.30
2018-01-21T18:40:57.452Z,81.30
2018-01-21T18:43:31.319Z,81.60
2018-01-21T18:46:05.111Z,81.50
2018-01-21T18:48:39.725Z,82.00
2018-01-21T18:51:13.646Z,82.00
2018-01-21T18:53:48.539Z,82.00
2018-01-21T18:56:23.135Z,82.10
2018-01-21T18:58:56.921Z,82.20
2018-01-21T19:01:30.681Z,82.30
2018-01-21T19:04:04.599Z,82.30
2018-01-21T19:06:38.376Z,82.10
2018-01-21T19:09:12.104Z,82.00
2018-01-21T19:11:47.023Z,82.40
2018-01-21T19:14:20.958Z,82.40
2018-01-21T19:16:55.532Z,82.50
2018-01-21T19:19:29.346Z,82.50
2018-01-21T19:22:03.891Z,82.50
2018-01-21T19:24:38.434Z,82.30
2018-01-21T19:27:12.213Z,82.20
2018-01-21T19:29:46.091Z,82.40
2018-01-21T19:32:20.204Z,81.40
2018-01-21T19:34:54.498Z,81.80
2018-01-21T19:37:28.470Z,82.20
2018-01-21T19:40:02.424Z,82.00
2018-01-21T19:42:41.793Z,81.50
2018-01-21T19:45:15.643Z,81.60
2018-01-21T19:47:49.488Z,81.60
2018-01-21T19:50:23.383Z,81.10
2018-01-21T19:52:57.224Z,80.90
2018-01-21T19:55:31.721Z,80.20
2018-01-21T19:58:05.611Z,80.10
2018-01-21T20:00:39.569Z,80.40
2018-01-21T20:03:13.580Z,81.10
2018-01-21T20:05:47.454Z,81.80
2018-01-21T20:08:22.059Z,81.20
2018-01-21T20:10:56.064Z,81.10
2018-01-21T20:13:30.695Z,80.90
2018-01-21T20:16:04.523Z,80.80
2018-01-21T20:18:39.119Z,81.80
2018-01-21T20:21:13.007Z,81.80
2018-01-21T20:23:46.778Z,82.10
2018-01-21T20:26:21.375Z,82.50
2018-01-21T20:28:55.185Z,82.50
2018-01-21T20:31:28.992Z,82.60
2018-01-21T20:34:02.724Z,82.90
2018-01-21T20:36:36.564Z,83.20
2018-01-21T20:39:10.368Z,83.80
2018-01-21T20:41:44.144Z,83.60
2018-01-21T20:44:18.827Z,83.70
2018-01-21T20:46:52.571Z,83.70
2018-01-21T20:49:26.480Z,83.70
2018-01-21T21:05:27.587Z,81.40
2018-01-21T21:08:02.370Z,81.00
2018-01-21T21:10:36.131Z,80.90
2018-01-21T21:13:09.942Z,80.50
2018-01-21T21:15:43.733Z,80.30
2018-01-21T21:18:17.590Z,80.90
2018-01-21T21:20:52.892Z,81.10
2018-01-21T21:23:27.474Z,81.40
2018-01-21T21:26:01.444Z,81.40
2018-01-21T21:28:35.295Z,81.40
2018-01-21T21:31:09.223Z,81.50
2018-01-21T21:33:43.782Z,81.30
2018-01-21T21:36:17.505Z,81.20
2018-01-21T21:38:51.280Z,81.40
2018-01-21T21:41:25.058Z,81.80
2018-01-21T21:43:58.982Z,81.90
2018-01-21T21:46:32.789Z,81.80
2018-01-21T21:49:08.124Z,82.20
2018-01-21T21:51:41.934Z,82.20
2018-01-21T21:54:15.938Z,82.50
2018-01-21T21:56:50.505Z,82.50
2018-01-21T21:59:24.351Z,82.40
